CYP463 LGRP-LCLK
Flight info
| Callsign | CYP463 |
|---|---|
| Flight time | 0h 53m |
| Altitude | 35000 |
| Route | VANES M601 RDS UM601 EVENO DCT DASNI M601 BONEK |
| Aircraft | A320/M-SDE3FGHIRWY/LB1 |
Departure
| Time | 2026-05-07 13:08 |
|---|---|
| Airport | Rhodes International Airport "Diagoras" (LGRP) |
Arrival
| Time | 2026-05-07 14:01 |
|---|---|
| Airport | Larnaca International Airport (LCLK) |
| Time | Latitude | Longitude | Altitude | Speed | Heading |
|---|---|---|---|---|---|
| 2026-05-07 12:42 | 36.40323 | 28.08981 | 28 ft | 0 kts | 160° |
| 2026-05-07 12:58 | 36.40343 | 28.08972 | 28 ft | 4 kts | 160° |
| 2026-05-07 12:58 | 36.40365 | 28.08962 | 28 ft | 3 kts | 159° |
| 2026-05-07 12:58 | 36.40381 | 28.08954 | 28 ft | 4 kts | 140° |
| 2026-05-07 12:59 | 36.40396 | 28.08918 | 28 ft | 3 kts | 90° |
| 2026-05-07 12:59 | 36.40396 | 28.08908 | 28 ft | 0 kts | 89° |
| 2026-05-07 13:03 | 36.40397 | 28.08955 | 28 ft | 11 kts | 84° |
| 2026-05-07 13:03 | 36.40411 | 28.09043 | 28 ft | 10 kts | 75° |
| 2026-05-07 13:03 | 36.40433 | 28.09117 | 28 ft | 9 kts | 69° |
| 2026-05-07 13:04 | 36.40453 | 28.09186 | 28 ft | 10 kts | 70° |
| 2026-05-07 13:04 | 36.40481 | 28.09285 | 28 ft | 13 kts | 70° |
| 2026-05-07 13:04 | 36.40535 | 28.09370 | 28 ft | 12 kts | 38° |
| 2026-05-07 13:04 | 36.40592 | 28.09437 | 28 ft | 12 kts | 59° |
| 2026-05-07 13:05 | 36.40634 | 28.09555 | 28 ft | 14 kts | 73° |
| 2026-05-07 13:05 | 36.40667 | 28.09687 | 28 ft | 21 kts | 72° |
| 2026-05-07 13:05 | 36.40729 | 28.09890 | 28 ft | 26 kts | 70° |
| 2026-05-07 13:05 | 36.40788 | 28.10091 | 28 ft | 24 kts | 71° |
| 2026-05-07 13:06 | 36.40842 | 28.10279 | 28 ft | 22 kts | 70° |
| 2026-05-07 13:06 | 36.40902 | 28.10431 | 28 ft | 18 kts | 30° |
| 2026-05-07 13:06 | 36.41003 | 28.10366 | 27 ft | 19 kts | 309° |
| 2026-05-07 13:06 | 36.41017 | 28.10248 | 27 ft | 0 kts | 249° |
| 2026-05-07 13:07 | 36.41012 | 28.10230 | 27 ft | 9 kts | 249° |
| 2026-05-07 13:07 | 36.40919 | 28.09915 | 26 ft | 74 kts | 250° |
| 2026-05-07 13:07 | 36.40672 | 28.09073 | 30 ft | 130 kts | 250° |
| 2026-05-07 13:07 | 36.40320 | 28.07864 | 255 ft | 155 kts | 250° |
| 2026-05-07 13:08 | 36.39990 | 28.06569 | 868 ft | 160 kts | 260° |
| 2026-05-07 13:08 | 36.39888 | 28.05181 | 1549 ft | 161 kts | 266° |
| 2026-05-07 13:08 | 36.39810 | 28.03754 | 2032 ft | 174 kts | 266° |
| 2026-05-07 13:08 | 36.39718 | 28.02173 | 2325 ft | 197 kts | 266° |
| 2026-05-07 13:09 | 36.39612 | 28.00373 | 2619 ft | 221 kts | 266° |
| 2026-05-07 13:09 | 36.39490 | 27.98361 | 2976 ft | 246 kts | 265° |
| 2026-05-07 13:09 | 36.39355 | 27.96164 | 3553 ft | 261 kts | 266° |
| 2026-05-07 13:09 | 36.39211 | 27.93877 | 4346 ft | 269 kts | 266° |
| 2026-05-07 13:10 | 36.39065 | 27.91560 | 5159 ft | 275 kts | 266° |
| 2026-05-07 13:10 | 36.38912 | 27.89143 | 5779 ft | 281 kts | 266° |
| 2026-05-07 13:10 | 36.38759 | 27.86741 | 5954 ft | 282 kts | 266° |
| 2026-05-07 13:10 | 36.38427 | 27.84332 | 6169 ft | 289 kts | 250° |
| 2026-05-07 13:11 | 36.37370 | 27.82208 | 7052 ft | 290 kts | 227° |
| 2026-05-07 13:11 | 36.35740 | 27.80777 | 7886 ft | 294 kts | 202° |
| 2026-05-07 13:11 | 36.33726 | 27.80321 | 8683 ft | 297 kts | 175° |
| 2026-05-07 13:11 | 36.31735 | 27.80998 | 9452 ft | 300 kts | 149° |
| 2026-05-07 13:12 | 36.30160 | 27.82680 | 10190 ft | 301 kts | 123° |
| 2026-05-07 13:12 | 36.29278 | 27.85033 | 10759 ft | 308 kts | 103° |
| 2026-05-07 13:12 | 36.28710 | 27.87700 | 10982 ft | 331 kts | 101° |
| 2026-05-07 13:12 | 36.28143 | 27.90550 | 11362 ft | 347 kts | 101° |
| 2026-05-07 13:13 | 36.27570 | 27.93461 | 11989 ft | 354 kts | 101° |
| 2026-05-07 13:13 | 36.26978 | 27.96455 | 12680 ft | 360 kts | 101° |
| 2026-05-07 13:13 | 36.26368 | 27.99502 | 13364 ft | 365 kts | 102° |
| 2026-05-07 13:13 | 36.25749 | 28.02549 | 14036 ft | 369 kts | 102° |
| 2026-05-07 13:14 | 36.25109 | 28.05668 | 14620 ft | 375 kts | 102° |
| 2026-05-07 13:14 | 36.24457 | 28.08828 | 15212 ft | 380 kts | 102° |
| 2026-05-07 13:14 | 36.23803 | 28.11986 | 15767 ft | 384 kts | 102° |
| 2026-05-07 13:14 | 36.23135 | 28.15220 | 16343 ft | 388 kts | 102° |
| 2026-05-07 13:15 | 36.22467 | 28.18447 | 16909 ft | 393 kts | 102° |
| 2026-05-07 13:15 | 36.21779 | 28.21751 | 17460 ft | 398 kts | 102° |
| 2026-05-07 13:15 | 36.21082 | 28.25092 | 18022 ft | 402 kts | 102° |
| 2026-05-07 13:15 | 36.20379 | 28.28478 | 18555 ft | 407 kts | 103° |
| 2026-05-07 13:16 | 36.19666 | 28.31906 | 19062 ft | 411 kts | 102° |
| 2026-05-07 13:16 | 36.18960 | 28.35302 | 19575 ft | 414 kts | 102° |
| 2026-05-07 13:16 | 36.18236 | 28.38770 | 20108 ft | 417 kts | 102° |
| 2026-05-07 13:16 | 36.17507 | 28.42262 | 20634 ft | 420 kts | 102° |
| 2026-05-07 13:17 | 36.16766 | 28.45794 | 21153 ft | 423 kts | 102° |
| 2026-05-07 13:17 | 36.16022 | 28.49338 | 21676 ft | 426 kts | 102° |
| 2026-05-07 13:17 | 36.15273 | 28.52901 | 22194 ft | 429 kts | 102° |
| 2026-05-07 13:17 | 36.14528 | 28.56454 | 22697 ft | 432 kts | 102° |
| 2026-05-07 13:18 | 36.13772 | 28.60074 | 23192 ft | 435 kts | 102° |
| 2026-05-07 13:18 | 36.13006 | 28.63718 | 23672 ft | 438 kts | 102° |
| 2026-05-07 13:18 | 36.12227 | 28.67398 | 24077 ft | 441 kts | 102° |
| 2026-05-07 13:18 | 36.11453 | 28.71038 | 24460 ft | 444 kts | 102° |
| 2026-05-07 13:19 | 36.10702 | 28.74570 | 24820 ft | 447 kts | 102° |
| 2026-05-07 13:19 | 36.09909 | 28.78293 | 25198 ft | 449 kts | 102° |
| 2026-05-07 13:19 | 36.09117 | 28.82009 | 25551 ft | 452 kts | 102° |
| 2026-05-07 13:19 | 36.08308 | 28.85796 | 25907 ft | 454 kts | 102° |
| 2026-05-07 13:20 | 36.07687 | 28.88695 | 26176 ft | 456 kts | 102° |
| 2026-05-07 13:20 | 36.06997 | 28.91915 | 26474 ft | 458 kts | 102° |
| 2026-05-07 13:20 | 36.06180 | 28.95745 | 26829 ft | 461 kts | 102° |
| 2026-05-07 13:20 | 36.05359 | 28.99588 | 27173 ft | 463 kts | 102° |
| 2026-05-07 13:21 | 36.04531 | 29.03457 | 27512 ft | 465 kts | 102° |
| 2026-05-07 13:21 | 36.03701 | 29.07332 | 27840 ft | 468 kts | 102° |
| 2026-05-07 13:21 | 36.02860 | 29.11240 | 28170 ft | 470 kts | 102° |
| 2026-05-07 13:21 | 36.02024 | 29.15114 | 28486 ft | 472 kts | 102° |
| 2026-05-07 13:22 | 36.01170 | 29.19057 | 28795 ft | 475 kts | 102° |
| 2026-05-07 13:22 | 36.00319 | 29.22973 | 29090 ft | 477 kts | 102° |
| 2026-05-07 13:22 | 35.99448 | 29.26967 | 29389 ft | 479 kts | 102° |
| 2026-05-07 13:22 | 35.98575 | 29.30962 | 29690 ft | 481 kts | 102° |
| 2026-05-07 13:23 | 35.97714 | 29.34913 | 29967 ft | 483 kts | 102° |
| 2026-05-07 13:23 | 35.96838 | 29.38935 | 30234 ft | 485 kts | 102° |
| 2026-05-07 13:23 | 35.95957 | 29.42989 | 30456 ft | 487 kts | 102° |
| 2026-05-07 13:23 | 35.95085 | 29.46997 | 30667 ft | 489 kts | 102° |
| 2026-05-07 13:24 | 35.94190 | 29.51089 | 30880 ft | 491 kts | 102° |
| 2026-05-07 13:24 | 35.93301 | 29.55131 | 31092 ft | 493 kts | 102° |
| 2026-05-07 13:24 | 35.92399 | 29.59217 | 31299 ft | 494 kts | 102° |
| 2026-05-07 13:24 | 35.91491 | 29.63330 | 31585 ft | 494 kts | 102° |
| 2026-05-07 13:25 | 35.90593 | 29.67381 | 31859 ft | 493 kts | 102° |
| 2026-05-07 13:25 | 35.89683 | 29.71484 | 32155 ft | 493 kts | 102° |
| 2026-05-07 13:25 | 35.88776 | 29.75569 | 32432 ft | 493 kts | 102° |
| 2026-05-07 13:25 | 35.87880 | 29.79614 | 32700 ft | 493 kts | 102° |
| 2026-05-07 13:26 | 35.86974 | 29.83697 | 32978 ft | 493 kts | 102° |
| 2026-05-07 13:26 | 35.86065 | 29.87784 | 33260 ft | 493 kts | 102° |
| 2026-05-07 13:26 | 35.85152 | 29.91869 | 33539 ft | 492 kts | 102° |
| 2026-05-07 13:26 | 35.84247 | 29.95905 | 33810 ft | 492 kts | 102° |
| 2026-05-07 13:27 | 35.83330 | 29.99986 | 34079 ft | 492 kts | 102° |
| 2026-05-07 13:27 | 35.82379 | 30.04057 | 34321 ft | 493 kts | 103° |
| 2026-05-07 13:27 | 35.81379 | 30.08111 | 34565 ft | 493 kts | 104° |
| 2026-05-07 13:27 | 35.80363 | 30.12089 | 34817 ft | 492 kts | 104° |
| 2026-05-07 13:28 | 35.79319 | 30.16116 | 35058 ft | 491 kts | 104° |
| 2026-05-07 13:28 | 35.78277 | 30.20132 | 35141 ft | 489 kts | 104° |
| 2026-05-07 13:28 | 35.76243 | 30.28050 | 35149 ft | 485 kts | 104° |
| 2026-05-07 13:29 | 35.74233 | 30.36004 | 35146 ft | 485 kts | 103° |
| 2026-05-07 13:29 | 35.72233 | 30.43912 | 35145 ft | 484 kts | 104° |
| 2026-05-07 13:30 | 35.70227 | 30.51782 | 35144 ft | 484 kts | 104° |
| 2026-05-07 13:30 | 35.68203 | 30.59648 | 35144 ft | 484 kts | 104° |
| 2026-05-07 13:31 | 35.66172 | 30.67569 | 35149 ft | 484 kts | 104° |
| 2026-05-07 13:31 | 35.64146 | 30.75433 | 35150 ft | 484 kts | 104° |
| 2026-05-07 13:32 | 35.62094 | 30.83353 | 35146 ft | 484 kts | 104° |
| 2026-05-07 13:32 | 35.60076 | 30.91211 | 35149 ft | 484 kts | 104° |
| 2026-05-07 13:33 | 35.58097 | 30.99089 | 35162 ft | 484 kts | 104° |
| 2026-05-07 13:33 | 35.56106 | 31.07000 | 35163 ft | 483 kts | 104° |
| 2026-05-07 13:34 | 35.53102 | 31.18804 | 35157 ft | 483 kts | 104° |
| 2026-05-07 13:35 | 35.51100 | 31.26647 | 35164 ft | 482 kts | 104° |
| 2026-05-07 13:35 | 35.49083 | 31.34512 | 35164 ft | 481 kts | 104° |
| 2026-05-07 13:36 | 35.47081 | 31.42297 | 35158 ft | 479 kts | 104° |
| 2026-05-07 13:36 | 35.45059 | 31.50106 | 35155 ft | 479 kts | 104° |
| 2026-05-07 13:37 | 35.43045 | 31.57893 | 35158 ft | 478 kts | 105° |
| 2026-05-07 13:37 | 35.41043 | 31.65611 | 35153 ft | 476 kts | 105° |
| 2026-05-07 13:38 | 35.39026 | 31.73378 | 34266 ft | 482 kts | 105° |
| 2026-05-07 13:38 | 35.37994 | 31.77349 | 33013 ft | 492 kts | 105° |
| 2026-05-07 13:38 | 35.36967 | 31.81292 | 32173 ft | 491 kts | 105° |
| 2026-05-07 13:38 | 35.35928 | 31.85267 | 31579 ft | 484 kts | 105° |
| 2026-05-07 13:39 | 35.34898 | 31.89192 | 30958 ft | 480 kts | 105° |
| 2026-05-07 13:39 | 35.33879 | 31.93074 | 30351 ft | 476 kts | 105° |
| 2026-05-07 13:39 | 35.32878 | 31.96889 | 29685 ft | 472 kts | 105° |
| 2026-05-07 13:39 | 35.31875 | 32.00700 | 29108 ft | 466 kts | 105° |
| 2026-05-07 13:40 | 35.30884 | 32.04461 | 28513 ft | 461 kts | 105° |
| 2026-05-07 13:40 | 35.29917 | 32.08132 | 27988 ft | 456 kts | 105° |
| 2026-05-07 13:40 | 35.28947 | 32.11831 | 27454 ft | 451 kts | 105° |
| 2026-05-07 13:40 | 35.27994 | 32.15478 | 26950 ft | 446 kts | 105° |
| 2026-05-07 13:41 | 35.27064 | 32.19038 | 26453 ft | 441 kts | 105° |
| 2026-05-07 13:41 | 35.26132 | 32.22611 | 25976 ft | 437 kts | 105° |
| 2026-05-07 13:41 | 35.25210 | 32.26139 | 25504 ft | 433 kts | 105° |
| 2026-05-07 13:41 | 35.24294 | 32.29635 | 25038 ft | 429 kts | 105° |
| 2026-05-07 13:42 | 35.23391 | 32.33062 | 24588 ft | 426 kts | 105° |
| 2026-05-07 13:42 | 35.22483 | 32.36503 | 24123 ft | 423 kts | 105° |
| 2026-05-07 13:42 | 35.21579 | 32.39927 | 23639 ft | 421 kts | 105° |
| 2026-05-07 13:42 | 35.20678 | 32.43340 | 23116 ft | 419 kts | 105° |
| 2026-05-07 13:43 | 35.20086 | 32.45579 | 22811 ft | 416 kts | 105° |
| 2026-05-07 13:43 | 35.18908 | 32.50033 | 22187 ft | 412 kts | 105° |
| 2026-05-07 13:43 | 35.18323 | 32.52244 | 21864 ft | 410 kts | 105° |
| 2026-05-07 13:43 | 35.17443 | 32.55560 | 21390 ft | 407 kts | 105° |
| 2026-05-07 13:44 | 35.16567 | 32.58861 | 20902 ft | 406 kts | 105° |
| 2026-05-07 13:44 | 35.15693 | 32.62140 | 20411 ft | 404 kts | 106° |
| 2026-05-07 13:44 | 35.14822 | 32.65404 | 19926 ft | 403 kts | 106° |
| 2026-05-07 13:44 | 35.13964 | 32.68619 | 19444 ft | 401 kts | 106° |
| 2026-05-07 13:45 | 35.13096 | 32.71881 | 18952 ft | 400 kts | 106° |
| 2026-05-07 13:45 | 35.12242 | 32.75076 | 18473 ft | 399 kts | 106° |
| 2026-05-07 13:45 | 35.11379 | 32.78296 | 17955 ft | 397 kts | 106° |
| 2026-05-07 13:45 | 35.10522 | 32.81495 | 17482 ft | 394 kts | 106° |
| 2026-05-07 13:46 | 35.09671 | 32.84669 | 17007 ft | 391 kts | 106° |
| 2026-05-07 13:46 | 35.08827 | 32.87810 | 16595 ft | 387 kts | 106° |
| 2026-05-07 13:46 | 35.07992 | 32.90920 | 16189 ft | 383 kts | 106° |
| 2026-05-07 13:46 | 35.07160 | 32.94015 | 15732 ft | 380 kts | 107° |
| 2026-05-07 13:47 | 35.06331 | 32.97006 | 15405 ft | 374 kts | 107° |
| 2026-05-07 13:47 | 35.05473 | 33.00002 | 14953 ft | 372 kts | 107° |
| 2026-05-07 13:47 | 35.04603 | 33.02983 | 14539 ft | 369 kts | 107° |
| 2026-05-07 13:47 | 35.03740 | 33.05924 | 14146 ft | 365 kts | 108° |
| 2026-05-07 13:48 | 35.02898 | 33.08799 | 13760 ft | 361 kts | 107° |
| 2026-05-07 13:48 | 35.02061 | 33.11676 | 13291 ft | 358 kts | 106° |
| 2026-05-07 13:48 | 35.01235 | 33.14540 | 12830 ft | 355 kts | 106° |
| 2026-05-07 13:48 | 35.00436 | 33.17320 | 12160 ft | 348 kts | 107° |
| 2026-05-07 13:49 | 34.99639 | 33.20092 | 11553 ft | 340 kts | 107° |
| 2026-05-07 13:49 | 34.98858 | 33.22805 | 11117 ft | 337 kts | 107° |
| 2026-05-07 13:49 | 34.98081 | 33.25499 | 10671 ft | 335 kts | 107° |
| 2026-05-07 13:49 | 34.97308 | 33.28176 | 10299 ft | 331 kts | 107° |
| 2026-05-07 13:50 | 34.96564 | 33.30741 | 10187 ft | 319 kts | 107° |
| 2026-05-07 13:50 | 34.95835 | 33.33248 | 10067 ft | 307 kts | 107° |
| 2026-05-07 13:50 | 34.95130 | 33.35672 | 9874 ft | 299 kts | 107° |
| 2026-05-07 13:50 | 34.94443 | 33.38031 | 9496 ft | 297 kts | 107° |
| 2026-05-07 13:51 | 34.93752 | 33.40401 | 9007 ft | 293 kts | 107° |
| 2026-05-07 13:51 | 34.93071 | 33.42734 | 8300 ft | 291 kts | 107° |
| 2026-05-07 13:51 | 34.92403 | 33.45024 | 7711 ft | 286 kts | 107° |
| 2026-05-07 13:51 | 34.91740 | 33.47308 | 7265 ft | 284 kts | 107° |
| 2026-05-07 13:52 | 34.91083 | 33.49571 | 6830 ft | 283 kts | 107° |
| 2026-05-07 13:52 | 34.90424 | 33.51831 | 6396 ft | 282 kts | 107° |
| 2026-05-07 13:52 | 34.89771 | 33.54061 | 5954 ft | 282 kts | 107° |
| 2026-05-07 13:52 | 34.89113 | 33.56309 | 5529 ft | 280 kts | 107° |
| 2026-05-07 13:53 | 34.88462 | 33.58530 | 5098 ft | 274 kts | 108° |
| 2026-05-07 13:53 | 34.88022 | 33.60719 | 4690 ft | 258 kts | 92° |
| 2026-05-07 13:53 | 34.88098 | 33.62839 | 4306 ft | 243 kts | 76° |
| 2026-05-07 13:53 | 34.88597 | 33.64722 | 3950 ft | 230 kts | 62° |
| 2026-05-07 13:54 | 34.89414 | 33.66344 | 3610 ft | 221 kts | 54° |
| 2026-05-07 13:54 | 34.90288 | 33.67886 | 3269 ft | 219 kts | 53° |
| 2026-05-07 13:54 | 34.91145 | 33.69409 | 3104 ft | 218 kts | 53° |
| 2026-05-07 13:54 | 34.91995 | 33.70926 | 3025 ft | 220 kts | 54° |
| 2026-05-07 13:55 | 34.92856 | 33.72465 | 2931 ft | 219 kts | 54° |
| 2026-05-07 13:55 | 34.93718 | 33.74009 | 2832 ft | 220 kts | 54° |
| 2026-05-07 13:55 | 34.94581 | 33.75551 | 2735 ft | 219 kts | 55° |
| 2026-05-07 13:55 | 34.95427 | 33.77060 | 2671 ft | 213 kts | 54° |
| 2026-05-07 13:56 | 34.96245 | 33.78513 | 2608 ft | 201 kts | 54° |
| 2026-05-07 13:56 | 34.97092 | 33.79842 | 2557 ft | 196 kts | 37° |
| 2026-05-07 13:56 | 34.98310 | 33.80438 | 2510 ft | 193 kts | 1° |
| 2026-05-07 13:56 | 34.99592 | 33.79991 | 2476 ft | 196 kts | 320° |
| 2026-05-07 13:57 | 35.00244 | 33.78564 | 2432 ft | 199 kts | 274° |
| 2026-05-07 13:57 | 34.99839 | 33.77004 | 2384 ft | 202 kts | 226° |
| 2026-05-07 13:57 | 34.98671 | 33.76057 | 2328 ft | 204 kts | 209° |
| 2026-05-07 13:57 | 34.97603 | 33.74991 | 2309 ft | 196 kts | 227° |
| 2026-05-07 13:58 | 34.96659 | 33.73790 | 2134 ft | 194 kts | 226° |
| 2026-05-07 13:58 | 34.95730 | 33.72632 | 1924 ft | 191 kts | 225° |
| 2026-05-07 13:58 | 34.94791 | 33.71476 | 1703 ft | 190 kts | 225° |
| 2026-05-07 13:58 | 34.93874 | 33.70350 | 1466 ft | 181 kts | 225° |
| 2026-05-07 13:59 | 34.93020 | 33.69304 | 1266 ft | 167 kts | 226° |
| 2026-05-07 13:59 | 34.92235 | 33.68343 | 1065 ft | 156 kts | 224° |
| 2026-05-07 13:59 | 34.91482 | 33.67420 | 884 ft | 151 kts | 223° |
| 2026-05-07 13:59 | 34.90751 | 33.66525 | 719 ft | 148 kts | 222° |
| 2026-05-07 14:00 | 34.90030 | 33.65643 | 523 ft | 147 kts | 224° |
| 2026-05-07 14:00 | 34.89318 | 33.64772 | 355 ft | 146 kts | 223° |
| 2026-05-07 14:00 | 34.88602 | 33.63897 | 162 ft | 144 kts | 223° |
| 2026-05-07 14:00 | 34.87901 | 33.63046 | 30 ft | 134 kts | 223° |
| 2026-05-07 14:01 | 34.87335 | 33.62355 | 18 ft | 94 kts | 226° |
| 2026-05-07 14:01 | 34.86999 | 33.61939 | 21 ft | 44 kts | 225° |
| 2026-05-07 14:01 | 34.86816 | 33.61722 | 17 ft | 36 kts | 224° |
| 2026-05-07 14:01 | 34.86650 | 33.61514 | 16 ft | 33 kts | 234° |
| 2026-05-07 14:02 | 34.86666 | 33.61350 | 21 ft | 18 kts | 311° |
| 2026-05-07 14:02 | 34.86767 | 33.61297 | 18 ft | 17 kts | 17° |
| 2026-05-07 14:02 | 34.86854 | 33.61380 | 19 ft | 15 kts | 21° |
| 2026-05-07 14:02 | 34.86931 | 33.61325 | 19 ft | 12 kts | 311° |
| 2026-05-07 14:03 | 34.86978 | 33.61263 | 20 ft | 9 kts | 315° |
| 2026-05-07 14:03 | 34.86995 | 33.61204 | 20 ft | 7 kts | 245° |
| 2026-05-07 14:03 | 34.86964 | 33.61163 | 20 ft | 7 kts | 229° |
| 2026-05-07 14:03 | 34.86949 | 33.61142 | 20 ft | 0 kts | 229° |